Time;durP1;ratioP1;P1;durP2;ratioP2;P2;SDS_P1;SDS_P2;PMS_P1;PMS_P2;Temp;Humidity;BMP_temperature;BMP_pressure;BME280_temperature;BME280_humidity;BME280_pressure;Samples;Min_cycle;Max_cycle;Signal;HPM_P1;HPM_P2
2022/05/28 00:00:51;;;;;;;12.95;3.50;;;;;;;9.64;74.19;102150.84;4952219;28;20046;-80
2022/05/28 00:03:18;;;;;;;13.77;3.75;;;;;;;9.64;74.10;102143.81;4952875;28;20023;-80
2022/05/28 00:05:44;;;;;;;12.52;4.43;;;;;;;9.58;74.15;102140.59;4951921;28;20521;-80
2022/05/28 00:08:09;;;;;;;11.43;3.70;;;;;;;9.60;73.86;102134.34;4936622;28;20023;-80
2022/05/28 00:10:34;;;;;;;10.27;3.55;;;;;;;9.56;74.09;102131.94;4961605;28;20443;-80
2022/05/28 00:13:00;;;;;;;12.90;3.80;;;;;;;9.60;74.02;102128.22;4959489;28;20039;-80
2022/05/28 00:15:25;;;;;;;14.63;3.80;;;;;;;9.53;74.38;102126.84;4936313;28;20019;-80
2022/05/28 00:17:51;;;;;;;13.80;4.13;;;;;;;9.55;74.29;102130.25;4952435;28;20035;-80
2022/05/28 00:20:16;;;;;;;11.43;3.90;;;;;;;9.54;74.62;102125.91;4953375;28;20101;-80
2022/05/28 00:22:43;;;;;;;15.15;4.53;;;;;;;9.55;74.55;102125.84;4952506;28;20102;-80
2022/05/28 00:25:11;;;;;;;12.50;4.20;;;;;;;9.51;74.89;102119.03;4952432;28;20031;-80
2022/05/28 00:27:37;;;;;;;14.93;4.15;;;;;;;9.52;75.29;102125.13;4952293;28;20046;-80
2022/05/28 00:30:04;;;;;;;15.75;4.47;;;;;;;9.47;75.47;102121.88;4951645;28;20046;-80
2022/05/28 00:32:29;;;;;;;16.50;4.43;;;;;;;9.51;75.72;102115.56;4950312;28;20066;-80
2022/05/28 00:34:54;;;;;;;15.57;4.50;;;;;;;9.50;76.01;102121.75;4951578;28;20405;-80
2022/05/28 00:37:20;;;;;;;14.68;4.35;;;;;;;9.55;76.06;102119.72;4952647;28;20086;-80
2022/05/28 00:39:45;;;;;;;11.82;4.22;;;;;;;9.58;76.02;102114.31;4951611;28;20031;-80
2022/05/28 00:42:11;;;;;;;14.90;5.15;;;;;;;9.64;75.97;102108.78;4935490;28;20023;-80
2022/05/28 00:44:36;;;;;;;16.25;4.93;;;;;;;9.67;76.04;102103.38;4952234;28;20029;-80
2022/05/28 00:47:02;;;;;;;17.10;4.90;;;;;;;9.72;76.36;102109.25;4951208;28;20524;-80
2022/05/28 00:49:30;;;;;;;18.90;5.07;;;;;;;9.74;76.17;102115.28;4935117;28;20031;-80
2022/05/28 00:51:59;;;;;;;12.45;4.70;;;;;;;9.74;76.51;102117.91;4935151;28;20034;-80
2022/05/28 00:54:27;;;;;;;13.88;5.18;;;;;;;9.72;76.35;102114.50;4935204;28;20437;-80
2022/05/28 00:56:53;;;;;;;15.98;4.88;;;;;;;9.71;76.23;102115.44;4952075;28;20039;-80
2022/05/28 00:59:18;;;;;;;14.68;5.10;;;;;;;9.70;76.01;102119.84;4951159;28;20138;-80
2022/05/28 01:01:44;;;;;;;19.38;5.30;;;;;;;9.68;76.46;102119.06;4951125;28;20041;-80
2022/05/28 01:04:22;;;;;;;13.55;4.55;;;;;;;9.73;76.01;102109.19;4952676;28;20027;-80
2022/05/28 01:07:07;;;;;;;15.95;5.25;;;;;;;9.74;75.66;102112.66;4950675;28;20504;-80
2022/05/28 01:10:10;;;;;;;13.93;5.22;;;;;;;9.73;75.69;102109.19;4934251;28;20050;-81
2022/05/28 01:12:39;;;;;;;15.50;5.07;;;;;;;9.70;76.25;102103.22;4951853;28;20027;-82
2022/05/28 01:15:11;;;;;;;19.45;5.30;;;;;;;9.71;76.05;102111.03;4934808;28;20492;-82
2022/05/28 01:17:47;;;;;;;13.63;5.00;;;;;;;9.70;75.89;102093.56;4954912;28;20054;-82
2022/05/28 01:20:20;;;;;;;17.48;5.28;;;;;;;9.71;75.88;102099.66;4971189;28;20030;-80
2022/05/28 01:22:53;;;;;;;19.30;5.68;;;;;;;9.69;75.88;102096.28;4958044;28;20057;-80
2022/05/28 01:25:26;;;;;;;17.08;5.53;;;;;;;9.69;76.08;102101.53;4950983;28;20019;-80
2022/05/28 01:27:57;;;;;;;;;;;;;;;9.78;74.31;102100.22;4950623;28;20543;-80
2022/05/28 01:30:22;;;;;;;17.80;5.18;;;;;;;9.64;75.91;102093.03;4951452;28;19918;-80
2022/05/28 01:32:51;;;;;;;17.50;5.40;;;;;;;9.69;76.40;102093.63;4951538;28;20331;-80
2022/05/28 01:35:20;;;;;;;19.33;5.18;;;;;;;9.61;76.47;102094.03;4951017;28;20027;-81
2022/05/28 01:37:48;;;;;;;19.10;4.97;;;;;;;9.64;76.27;102087.78;4951154;28;20019;-80
2022/05/28 01:40:15;;;;;;;18.55;5.18;;;;;;;9.64;76.42;102093.03;4951352;28;20050;-80
2022/05/28 01:42:45;;;;;;;13.70;4.88;;;;;;;9.60;76.58;102086.19;4949500;28;20023;-80
2022/05/28 01:45:13;;;;;;;17.05;5.35;;;;;;;9.57;76.70;102081.09;4950468;28;20074;-80
2022/05/28 01:47:41;;;;;;;18.02;5.13;;;;;;;9.55;76.82;102086.44;4949806;28;20393;-80
2022/05/28 01:50:09;;;;;;;13.88;5.30;;;;;;;9.57;76.91;102087.19;4950916;28;20081;-80
2022/05/28 01:52:35;;;;;;;16.73;5.03;;;;;;;9.57;76.96;102083.72;4951057;28;20453;-80
2022/05/28 01:55:02;;;;;;;16.92;5.75;;;;;;;9.57;77.45;102092.44;4951899;28;20054;-80
2022/05/28 01:57:27;;;;;;;18.67;5.13;;;;;;;9.61;77.55;102090.56;4950655;28;20027;-80
2022/05/28 01:59:53;;;;;;;19.42;5.15;;;;;;;9.62;77.24;102085.22;4930231;28;20042;-80
2022/05/28 02:02:18;;;;;;;16.55;5.30;;;;;;;9.62;77.50;102087.84;4947474;28;20051;-80
2022/05/28 02:04:47;;;;;;;14.48;4.88;;;;;;;9.64;77.49;102090.41;4930392;28;20031;-80
2022/05/28 02:07:14;;;;;;;15.57;5.15;;;;;;;9.66;77.54;102091.16;4950147;28;20047;-80
2022/05/28 02:09:45;;;;;;;17.70;5.50;;;;;;;9.67;78.00;102096.34;4949979;28;20030;-80
2022/05/28 02:12:33;;;;;;;20.63;5.75;;;;;;;9.61;78.06;102093.19;4970980;28;20023;-80
2022/05/28 02:15:34;;;;;;;17.25;5.00;;;;;;;9.61;77.66;102094.03;4953896;28;20027;-80
2022/05/28 02:18:10;;;;;;;19.52;5.57;;;;;;;9.54;78.29;102097.88;4936824;28;20504;-80
2022/05/28 02:20:57;;;;;;;15.77;5.57;;;;;;;9.56;77.92;102098.63;4933360;28;20428;-80
2022/05/28 02:23:57;;;;;;;18.77;5.50;;;;;;;9.55;77.88;102088.19;4933525;28;20559;-80
2022/05/28 02:26:48;;;;;;;15.75;5.25;;;;;;;9.53;77.76;102084.81;4944202;28;20110;-80
2022/05/28 02:29:14;;;;;;;15.82;5.28;;;;;;;9.49;78.68;102083.25;4949743;28;20114;-80
2022/05/28 02:31:46;;;;;;;16.98;5.60;;;;;;;9.44;78.75;102091.38;4947811;28;20031;-80
2022/05/28 02:34:13;;;;;;;16.50;5.90;;;;;;;9.43;78.79;102085.25;4950709;28;20051;-80
2022/05/28 02:36:39;;;;;;;17.23;5.63;;;;;;;9.46;79.02;102083.41;4950062;28;20050;-80
2022/05/28 02:39:05;;;;;;;18.25;5.40;;;;;;;9.47;79.12;102079.84;4933473;28;20501;-80
2022/05/28 02:41:31;;;;;;;18.58;5.65;;;;;;;9.46;79.34;102076.38;4932861;28;20067;-80
2022/05/28 02:43:56;;;;;;;17.15;5.45;;;;;;;9.43;79.67;102084.41;4951139;28;20094;-80
2022/05/28 02:46:22;;;;;;;14.82;5.65;;;;;;;9.37;79.95;102069.81;4932685;28;20027;-80
2022/05/28 02:48:47;;;;;;;13.93;5.05;;;;;;;9.40;80.25;102074.06;4950244;28;20054;-80
2022/05/28 02:51:16;;;;;;;19.83;5.22;;;;;;;9.35;80.14;102076.91;4950099;28;20027;-80
2022/05/28 02:53:41;;;;;;;14.27;5.30;;;;;;;9.36;80.09;102076.00;4949594;28;20504;-80
2022/05/28 02:56:08;;;;;;;18.75;5.50;;;;;;;9.34;80.62;102075.22;4950895;28;20159;-80
2022/05/28 02:58:34;;;;;;;17.83;5.15;;;;;;;9.35;80.70;102068.19;4950173;28;20077;-80
2022/05/28 03:01:03;;;;;;;14.02;4.93;;;;;;;9.35;80.73;102065.56;4932735;28;20027;-80
2022/05/28 03:03:32;;;;;;;17.98;4.97;;;;;;;9.38;81.08;102071.50;4950411;28;20106;-80
2022/05/28 03:05:57;;;;;;;18.58;5.10;;;;;;;9.37;81.17;102064.56;4949840;28;20066;-80
2022/05/28 03:08:22;;;;;;;15.98;4.88;;;;;;;9.37;81.15;102064.56;4950861;28;20027;-80
2022/05/28 03:10:48;;;;;;;17.17;4.85;;;;;;;9.38;81.39;102058.38;4959861;28;20847;-80
2022/05/28 03:13:14;;;;;;;21.08;5.00;;;;;;;9.42;81.84;102061.69;4969796;28;20033;-80
2022/05/28 03:15:39;;;;;;;18.02;4.88;;;;;;;9.44;81.83;102067.72;4968520;28;20023;-80
2022/05/28 03:18:05;;;;;;;14.93;4.70;;;;;;;9.50;82.18;102063.94;4962240;28;20028;-80
2022/05/28 03:20:31;;;;;;;14.75;4.40;;;;;;;9.51;81.94;102066.50;4949703;28;20512;-79
2022/05/28 03:22:56;;;;;;;20.55;4.85;;;;;;;9.51;81.93;102060.38;4951109;28;20070;-80
2022/05/28 03:25:22;;;;;;;16.30;4.38;;;;;;;9.52;82.25;102062.94;4950453;28;20035;-80
2022/05/28 03:27:48;;;;;;;16.63;4.70;;;;;;;9.46;82.26;102068.50;4948357;28;20093;-80
2022/05/28 03:30:14;;;;;;;16.95;4.95;;;;;;;9.46;82.05;102067.66;4962813;28;20066;-80
2022/05/28 03:32:40;;;;;;;15.20;4.90;;;;;;;9.41;82.27;102066.09;4936531;28;20029;-80
2022/05/28 03:35:06;;;;;;;19.02;4.78;;;;;;;9.42;82.13;102075.69;4957313;28;20026;-80
2022/05/28 03:37:31;;;;;;;15.63;4.72;;;;;;;9.31;81.89;102072.75;4950304;28;20039;-80
2022/05/28 03:39:57;;;;;;;15.35;4.95;;;;;;;9.29;82.18;102073.75;4951662;28;20404;-80
2022/05/28 03:42:22;;;;;;;18.85;5.47;;;;;;;9.29;82.24;102069.34;4953528;28;20504;-80
2022/05/28 03:44:48;;;;;;;19.60;5.25;;;;;;;9.24;82.67;102067.88;4954355;28;20684;-80
2022/05/28 03:47:13;;;;;;;16.00;4.95;;;;;;;9.22;83.10;102070.56;4956861;28;20511;-80
2022/05/28 03:49:41;;;;;;;15.32;4.68;;;;;;;9.23;83.01;102079.31;4972355;28;20027;-80
2022/05/28 03:52:07;;;;;;;12.98;4.72;;;;;;;9.27;83.06;102081.69;4950318;28;20034;-82
2022/05/28 03:54:32;;;;;;;14.40;4.70;;;;;;;9.30;83.33;102073.66;4943137;28;20035;-80
2022/05/28 03:57:06;;;;;;;17.40;4.88;;;;;;;9.34;83.22;102080.47;4934056;28;20028;-80
2022/05/28 03:59:34;;;;;;;19.13;5.13;;;;;;;9.29;83.57;102082.47;4934928;28;20033;-80
2022/05/28 04:02:00;;;;;;;15.18;4.50;;;;;;;9.32;83.88;102084.09;4950584;28;20159;-80
2022/05/28 04:04:25;;;;;;;13.48;4.35;;;;;;;9.54;83.96;102086.50;4952846;28;20035;-80
2022/05/28 04:06:51;;;;;;;17.13;5.35;;;;;;;10.20;82.26;102092.78;4950889;28;20070;-81
2022/05/28 04:09:16;;;;;;;13.70;3.78;;;;;;;11.19;78.42;102082.06;4951884;28;20031;-80
2022/05/28 04:11:41;;;;;;;12.57;4.55;;;;;;;11.76;74.87;102078.78;4970715;28;20130;-80
2022/05/28 04:14:07;;;;;;;14.88;4.07;;;;;;;12.54;71.98;102088.97;4955473;28;20504;-81
2022/05/28 04:16:33;;;;;;;9.50;3.88;;;;;;;13.05;69.32;102081.31;4947993;28;20090;-81
2022/05/28 04:18:58;;;;;;;10.45;3.35;;;;;;;13.33;68.73;102079.56;4951391;28;20035;-81
2022/05/28 04:21:23;;;;;;;16.83;4.03;;;;;;;12.69;69.19;102083.66;4972917;28;20369;-81
2022/05/28 04:23:49;;;;;;;17.05;4.00;;;;;;;12.41;70.27;102082.78;4970428;28;20045;-81
2022/05/28 04:26:14;;;;;;;12.32;3.10;;;;;;;12.22;71.48;102083.03;4972645;28;20326;-81
2022/05/28 04:28:39;;;;;;;15.45;4.30;;;;;;;11.82;72.91;102089.84;4972245;28;20101;-81
2022/05/28 04:31:05;;;;;;;10.18;3.60;;;;;;;11.63;74.19;102086.59;4939133;28;20038;-81
2022/05/28 04:33:30;;;;;;;13.20;3.65;;;;;;;11.49;75.42;102087.38;4950662;28;20019;-80
2022/05/28 04:35:55;;;;;;;14.55;3.60;;;;;;;11.34;77.15;102095.31;4952141;28;20116;-80
2022/05/28 04:38:23;;;;;;;14.77;4.00;;;;;;;11.24;76.80;102097.63;4951387;28;20027;-80
2022/05/28 04:40:48;;;;;;;12.05;3.90;;;;;;;11.17;77.44;102091.00;4952638;28;20613;-80
2022/05/28 04:43:13;;;;;;;17.10;4.03;;;;;;;11.00;78.27;102089.31;4953076;28;20552;-80
2022/05/28 04:45:39;;;;;;;15.82;3.83;;;;;;;10.92;78.58;102087.13;4951938;28;20516;-80
2022/05/28 04:48:04;;;;;;;17.83;3.97;;;;;;;10.86;79.38;102089.25;4936002;28;20031;-80
2022/05/28 04:50:30;;;;;;;15.95;3.80;;;;;;;10.81;79.84;102094.75;4952150;28;20478;-80
2022/05/28 04:52:56;;;;;;;14.90;4.15;;;;;;;10.77;80.55;102101.09;4951488;28;20031;-80
2022/05/28 04:55:21;;;;;;;16.80;4.10;;;;;;;10.77;80.75;102100.25;4952996;28;20080;-80
2022/05/28 04:57:48;;;;;;;19.13;4.47;;;;;;;10.78;80.98;102101.94;4951818;28;20035;-82
2022/05/28 05:00:18;;;;;;;19.90;4.43;;;;;;;10.72;81.71;102099.66;4952283;28;20039;-82
2022/05/28 05:02:44;;;;;;;16.17;3.92;;;;;;;10.72;81.81;102104.91;4934690;28;20027;-82
2022/05/28 05:05:09;;;;;;;14.10;3.92;;;;;;;10.75;82.44;102115.28;4935218;28;20024;-83
2022/05/28 05:07:35;;;;;;;15.00;4.15;;;;;;;10.76;82.39;102114.34;4950648;28;20042;-82
2022/05/28 05:10:00;;;;;;;14.98;4.57;;;;;;;10.83;82.28;102110.47;4957191;28;20034;-80
2022/05/28 05:12:26;;;;;;;15.43;4.22;;;;;;;10.84;82.64;102115.66;4963928;28;20034;-80
2022/05/28 05:14:51;;;;;;;13.45;3.95;;;;;;;10.83;82.84;102119.22;4946164;28;20031;-80
2022/05/28 05:17:16;;;;;;;21.70;4.20;;;;;;;10.88;82.28;102116.34;4942782;28;20070;-80
2022/05/28 05:19:42;;;;;;;20.83;4.00;;;;;;;10.89;83.26;102115.41;4950778;28;20081;-80
2022/05/28 05:22:07;;;;;;;14.35;3.80;;;;;;;10.90;82.97;102125.84;4950524;28;20058;-80
2022/05/28 05:24:33;;;;;;;15.52;3.90;;;;;;;10.95;82.70;102120.31;4951025;28;20023;-79
2022/05/28 05:27:00;;;;;;;21.50;3.92;;;;;;;10.97;82.40;102121.94;4933091;28;20118;-80
2022/05/28 05:29:26;;;;;;;14.00;4.20;;;;;;;11.02;82.96;102129.59;4952222;28;20038;-80
2022/05/28 05:31:51;;;;;;;15.02;3.65;;;;;;;11.09;83.01;102117.75;4950468;28;20031;-80
2022/05/28 05:34:17;;;;;;;14.00;3.63;;;;;;;11.15;82.62;102120.06;4951918;28;20027;-80
2022/05/28 05:36:42;;;;;;;17.55;4.35;;;;;;;11.20;82.68;102123.28;4950984;28;20106;-80
2022/05/28 05:39:08;;;;;;;19.00;3.60;;;;;;;11.25;81.79;102121.25;4953448;28;20031;-80
2022/05/28 05:41:38;;;;;;;20.10;3.92;;;;;;;11.31;81.64;102133.22;4933132;28;20035;-80
2022/05/28 05:44:03;;;;;;;13.18;2.90;;;;;;;11.39;80.34;102131.00;4953451;28;20129;-80
2022/05/28 05:46:32;;;;;;;14.02;2.70;;;;;;;11.47;80.83;102135.84;4952978;28;20062;-80
2022/05/28 05:48:57;;;;;;;13.88;2.58;;;;;;;11.53;79.58;102135.47;4950601;28;20035;-82
2022/05/28 05:51:22;;;;;;;12.88;2.40;;;;;;;11.59;79.58;102135.97;4935582;28;20031;-81
2022/05/28 05:53:48;;;;;;;9.68;2.08;;;;;;;11.66;78.01;102131.22;4950693;28;20280;-80
2022/05/28 05:56:13;;;;;;;12.43;2.22;;;;;;;11.71;77.19;102133.59;4948229;28;20023;-81
2022/05/28 05:58:38;;;;;;;10.82;2.47;;;;;;;11.80;77.68;102130.44;4950275;28;20023;-81
2022/05/28 06:01:05;;;;;;;13.77;2.38;;;;;;;11.83;76.80;102139.03;4953048;28;20090;-80
2022/05/28 06:03:30;;;;;;;12.63;2.30;;;;;;;11.88;76.48;102136.13;4949895;28;20504;-80
2022/05/28 06:06:00;;;;;;;9.35;2.38;;;;;;;11.96;76.73;102139.13;4951511;28;20055;-81
2022/05/28 06:08:26;;;;;;;11.93;2.20;;;;;;;12.09;75.79;102139.28;4931389;28;20086;-81
2022/05/28 06:10:51;;;;;;;10.98;2.17;;;;;;;12.23;74.75;102147.22;4957424;28;20049;-81
2022/05/28 06:13:17;;;;;;;9.60;2.10;;;;;;;12.28;72.70;102139.88;4934000;28;20027;-80
2022/05/28 06:15:42;;;;;;;10.73;2.08;;;;;;;12.29;73.10;102140.72;4932816;28;20031;-80
2022/05/28 06:18:08;;;;;;;5.38;1.52;;;;;;;12.36;71.76;102131.47;4948430;28;20090;-80
2022/05/28 06:20:34;;;;;;;11.82;2.15;;;;;;;12.42;72.56;102139.06;4937220;28;20033;-80
2022/05/28 06:23:00;;;;;;;10.73;1.98;;;;;;;12.46;72.29;102144.03;4962768;28;20027;-81
2022/05/28 06:25:26;;;;;;;9.60;1.92;;;;;;;12.49;71.39;102145.66;4961403;28;20507;-81
2022/05/28 06:27:51;;;;;;;10.80;1.80;;;;;;;12.53;70.79;102145.34;4955802;28;20388;-81
2022/05/28 06:30:16;;;;;;;7.72;1.90;;;;;;;12.58;68.44;102150.34;4957897;28;20031;-81
2022/05/28 06:32:42;;;;;;;9.15;1.70;;;;;;;12.63;67.43;102152.72;4959763;28;20031;-81
2022/05/28 06:35:08;;;;;;;10.30;1.83;;;;;;;12.66;67.02;102155.16;4961686;28;20050;-81
2022/05/28 06:37:34;;;;;;;8.20;1.50;;;;;;;12.68;66.98;102159.41;4944706;28;20058;-81
2022/05/28 06:39:59;;;;;;;8.90;1.60;;;;;;;12.71;66.03;102159.22;4950573;28;20077;-81
2022/05/28 06:42:25;;;;;;;9.25;1.95;;;;;;;12.74;64.98;102152.88;4934179;28;20058;-81
2022/05/28 06:44:50;;;;;;;9.35;1.65;;;;;;;12.85;66.10;102161.84;4951864;28;20110;-80
2022/05/28 06:47:16;;;;;;;7.22;1.73;;;;;;;12.89;64.36;102159.03;4950759;28;20662;-80
2022/05/28 06:49:41;;;;;;;9.63;1.63;;;;;;;12.84;64.60;102164.59;4933924;28;20031;-80
2022/05/28 06:52:06;;;;;;;10.65;1.63;;;;;;;12.80;63.38;102163.06;4956815;28;20034;-80
2022/05/28 06:54:32;;;;;;;9.00;1.60;;;;;;;12.90;64.20;102163.38;4917346;28;20035;-80
2022/05/28 06:56:57;;;;;;;9.95;1.65;;;;;;;12.84;63.35;102164.59;4947985;28;20012;-81
2022/05/28 06:59:22;;;;;;;5.93;1.33;;;;;;;12.96;64.14;102158.53;4949010;28;20515;-81
2022/05/28 07:01:48;;;;;;;10.07;1.77;;;;;;;13.10;63.33;102161.16;4949281;28;20800;-80
2022/05/28 07:04:13;;;;;;;7.03;1.50;;;;;;;13.36;61.41;102161.31;4951010;28;20031;-80
2022/05/28 07:06:39;;;;;;;7.50;1.88;;;;;;;13.71;62.57;102167.81;4957752;28;20042;-79
2022/05/28 07:09:07;;;;;;;9.50;1.90;;;;;;;14.15;60.38;102177.22;4945837;28;20461;-79
2022/05/28 07:11:33;;;;;;;11.50;1.60;;;;;;;14.37;58.31;102166.84;4933495;28;20031;-81
2022/05/28 07:13:59;;;;;;;9.07;1.67;;;;;;;14.15;57.86;102166.63;4934351;28;20106;-83
2022/05/28 07:16:24;;;;;;;7.47;1.98;;;;;;;14.25;57.14;102167.69;4934439;28;20035;-83
2022/05/28 07:18:50;;;;;;;6.90;1.40;;;;;;;14.06;57.30;102169.91;4938879;28;20023;-82
2022/05/28 07:21:15;;;;;;;10.57;1.65;;;;;;;14.16;56.94;102170.13;4958672;28;20050;-83
2022/05/28 07:23:41;;;;;;;7.28;1.52;;;;;;;14.44;56.79;102169.97;4967224;28;20533;-82
2022/05/28 07:26:15;;;;;;;8.35;1.80;;;;;;;14.62;56.39;102173.13;4961772;28;20035;-82
2022/05/28 07:28:42;;;;;;;4.85;1.25;;;;;;;14.50;55.80;102166.03;4972544;28;20034;-83
2022/05/28 07:31:20;;;;;;;4.50;1.30;;;;;;;14.39;55.99;102170.22;4955805;28;20034;-82
2022/05/28 07:33:47;;;;;;;7.60;1.75;;;;;;;14.56;55.53;102171.75;4952632;28;20396;-83
2022/05/28 07:36:15;;;;;;;8.82;1.60;;;;;;;14.94;55.19;102174.38;4957056;28;20686;-84
2022/05/28 07:38:42;;;;;;;6.80;1.42;;;;;;;15.26;55.30;102161.44;4966443;28;20139;-83
2022/05/28 07:41:12;;;;;;;11.50;1.60;;;;;;;15.24;52.95;102167.81;4948218;28;20019;-83
2022/05/28 07:43:38;;;;;;;8.57;1.73;;;;;;;15.12;52.21;102163.38;4948810;28;20023;-83
2022/05/28 07:46:09;;;;;;;8.57;1.67;;;;;;;15.14;52.70;102166.78;4966732;28;20034;-84
2022/05/28 07:48:34;;;;;;;5.93;1.20;;;;;;;15.22;52.22;102164.44;4951095;28;20090;-83
2022/05/28 07:50:59;;;;;;;6.25;1.40;;;;;;;15.32;53.90;102163.66;4943428;28;20031;-84
2022/05/28 07:53:25;;;;;;;7.40;1.40;;;;;;;15.34;53.54;102166.19;4965078;28;20033;-84
2022/05/28 07:55:50;;;;;;;5.28;1.35;;;;;;;15.14;53.32;102166.78;4942629;28;20397;-84
2022/05/28 07:58:16;;;;;;;4.60;1.20;;;;;;;15.02;54.23;102164.06;4962006;28;20039;-84
2022/05/28 08:00:47;;;;;;;10.02;1.52;;;;;;;14.81;53.35;102170.91;4972163;28;20109;-83
2022/05/28 08:03:14;;;;;;;12.13;1.70;;;;;;;14.64;54.15;102173.88;4961910;28;20034;-83
2022/05/28 08:05:42;;;;;;;7.15;1.60;;;;;;;14.56;53.91;102171.75;4970306;28;20049;-83
2022/05/28 08:08:08;;;;;;;5.80;1.40;;;;;;;14.46;54.86;102169.84;4972253;28;20087;-84
2022/05/28 08:10:34;;;;;;;11.07;2.22;;;;;;;14.69;54.85;102167.28;4963207;28;20118;-81
2022/05/28 08:13:05;;;;;;;10.40;1.88;;;;;;;14.60;54.03;102172.38;4958079;28;20477;-83
2022/05/28 08:15:35;;;;;;;6.45;1.70;;;;;;;14.39;54.37;102164.94;4964069;28;20031;-82
2022/05/28 08:18:00;;;;;;;10.77;1.77;;;;;;;14.57;54.50;102162.00;4945405;28;20024;-83
2022/05/28 08:23:10;;;;;;;7.22;1.33;;;;;;;15.68;52.01;102151.31;4972043;28;20049;-79
2022/05/28 08:25:37;;;;;;;7.80;1.38;;;;;;;15.98;50.33;102146.34;4946868;28;20023;-79
2022/05/28 08:28:02;;;;;;;9.70;1.50;;;;;;;16.59;51.34;102149.59;4953551;28;20038;-79
2022/05/28 08:30:29;;;;;;;5.53;1.30;;;;;;;16.91;48.58;102149.72;4951125;28;20031;-79
2022/05/28 08:32:54;;;;;;;6.35;1.33;;;;;;;16.85;47.09;102144.06;4928443;28;20378;-81
2022/05/28 08:35:21;;;;;;;8.77;1.85;;;;;;;17.08;47.12;102144.84;4936005;28;20031;-80
2022/05/28 08:37:47;;;;;;;5.38;1.20;;;;;;;17.18;46.97;102151.13;4950820;28;20030;-79
2022/05/28 08:40:13;;;;;;;7.47;1.52;;;;;;;17.24;48.01;102145.31;4953317;28;20446;-80
2022/05/28 08:42:40;;;;;;;8.23;1.45;;;;;;;17.32;46.56;102137.56;4933399;28;20473;-81
2022/05/28 08:45:06;;;;;;;6.03;1.20;;;;;;;17.37;47.46;102138.03;4934496;28;20019;-83
2022/05/28 08:47:42;;;;;;;6.28;1.33;;;;;;;17.41;47.47;102141.28;4935197;28;20118;-83
2022/05/28 08:50:10;;;;;;;9.07;1.30;;;;;;;17.34;46.63;102135.63;4935717;28;20027;-82
2022/05/28 08:52:58;;;;;;;8.65;1.50;;;;;;;17.52;47.76;102138.56;4948433;28;20454;-82
2022/05/28 08:55:26;;;;;;;7.07;1.50;;;;;;;17.49;46.95;102144.97;4932554;28;20019;-82
2022/05/28 08:58:00;;;;;;;7.28;1.20;;;;;;;17.31;47.47;102146.50;4947438;28;20027;-83
2022/05/28 09:00:49;;;;;;;4.60;1.30;;;;;;;17.12;48.29;102146.31;4950126;28;20042;-83
2022/05/28 09:03:20;;;;;;;7.13;1.50;;;;;;;16.88;48.70;102141.16;4952034;29;20090;-82
2022/05/28 09:05:56;;;;;;;7.57;1.20;;;;;;;16.66;48.94;102147.31;4949775;29;20035;-82
2022/05/28 09:08:31;;;;;;;5.65;1.40;;;;;;;16.52;49.54;102148.38;4934848;29;20118;-82
2022/05/28 09:11:03;;;;;;;8.55;1.85;;;;;;;16.34;50.06;102152.44;4951645;28;20023;-83
2022/05/28 09:13:40;;;;;;;6.47;1.50;;;;;;;16.14;50.13;102161.97;4951733;29;20114;-83
2022/05/28 09:16:09;;;;;;;5.75;1.60;;;;;;;15.81;51.15;102157.41;4950770;29;20027;-83
2022/05/28 09:18:41;;;;;;;8.25;1.80;;;;;;;15.93;51.96;102152.97;4935379;29;20098;-83
2022/05/28 09:21:10;;;;;;;8.15;1.50;;;;;;;16.19;51.48;102153.66;4951806;29;20114;-83
2022/05/28 09:23:54;;;;;;;10.00;1.60;;;;;;;16.66;51.52;102149.13;4952316;29;20023;-83
2022/05/28 09:26:58;;;;;;;7.78;1.70;;;;;;;17.06;49.75;102144.13;4935100;29;20042;-84
2022/05/28 09:29:35;;;;;;;6.75;1.77;;;;;;;17.45;49.17;102132.91;4935720;29;20035;-84
2022/05/28 09:32:27;;;;;;;10.15;1.67;;;;;;;17.89;47.67;102130.19;4953160;29;20473;-83
2022/05/28 09:35:20;;;;;;;5.95;1.30;;;;;;;18.21;47.80;102141.63;4912025;29;20063;-82
2022/05/28 09:37:55;;;;;;;9.77;1.40;;;;;;;18.12;46.67;102137.09;4932937;29;20501;-82
2022/05/28 09:40:33;;;;;;;6.03;1.45;;;;;;;17.86;46.60;102136.63;4931899;29;20031;-82
2022/05/28 09:43:24;;;;;;;7.63;1.40;;;;;;;17.63;47.22;102135.03;4916597;29;20027;-83
2022/05/28 09:46:27;;;;;;;5.97;1.40;;;;;;;17.47;46.60;102146.09;4932769;29;20572;-83
2022/05/28 09:49:16;;;;;;;3.10;1.10;;;;;;;17.00;45.12;102141.97;4930756;29;20031;-83
2022/05/28 09:52:07;;;;;;;6.38;1.25;;;;;;;16.68;47.58;102140.06;4936382;28;20024;-81
2022/05/28 09:54:33;;;;;;;5.75;1.23;;;;;;;16.78;46.50;102132.19;4931944;29;20572;-81
2022/05/28 09:57:01;;;;;;;7.10;1.45;;;;;;;16.94;46.50;102137.16;4932829;29;20110;-83
2022/05/28 09:59:43;;;;;;;7.00;1.50;;;;;;;17.26;47.40;102132.75;4931504;29;20023;-83
2022/05/28 10:02:41;;;;;;;8.07;1.33;;;;;;;17.53;47.62;102129.59;4948489;28;20436;-82
2022/05/28 10:05:13;;;;;;;10.85;1.60;;;;;;;17.75;45.11;102136.69;4966143;28;20039;-82
2022/05/28 10:07:46;;;;;;;7.57;1.77;;;;;;;18.27;46.26;102125.13;4968766;28;20026;-83
2022/05/28 10:10:17;;;;;;;10.30;1.63;;;;;;;18.33;43.88;102126.41;4964366;28;20026;-82
2022/05/28 10:12:42;;;;;;;6.90;1.67;;;;;;;18.47;44.54;102120.75;4962305;28;20058;-83
2022/05/28 10:15:16;;;;;;;8.77;1.38;;;;;;;18.34;42.10;102114.75;4969317;28;20022;-83
2022/05/28 10:17:43;;;;;;;7.82;1.40;;;;;;;18.06;43.43;102127.81;4949452;28;20521;-83
2022/05/28 10:20:16;;;;;;;7.25;1.50;;;;;;;17.67;44.80;102126.69;4941187;28;20137;-83
2022/05/28 10:22:43;;;;;;;7.87;1.60;;;;;;;17.79;46.07;102138.13;4963887;28;20222;-83
2022/05/28 10:25:29;;;;;;;8.63;1.42;;;;;;;17.92;43.37;102122.78;4970164;28;20362;-83
2022/05/28 10:27:55;;;;;;;4.78;1.30;;;;;;;18.24;42.47;102129.88;4937163;28;20035;-83
2022/05/28 10:30:30;;;;;;;5.72;1.38;;;;;;;18.43;41.69;102116.66;4952327;28;20027;-83
2022/05/28 10:32:56;;;;;;;6.80;1.33;;;;;;;18.25;41.64;102108.41;4952843;28;20034;-84
2022/05/28 10:35:25;;;;;;;6.95;1.65;;;;;;;18.10;41.27;102112.41;4952799;28;20408;-84
2022/05/28 10:37:51;;;;;;;4.15;1.30;;;;;;;17.84;40.20;102119.94;4946439;28;20043;-84
2022/05/28 10:40:25;;;;;;;8.77;1.30;;;;;;;17.43;40.71;102124.22;4952918;28;20023;-83
2022/05/28 10:43:05;;;;;;;5.78;1.50;;;;;;;17.08;42.63;102124.44;4936790;28;20027;-84
2022/05/28 10:45:42;;;;;;;8.70;1.70;;;;;;;17.23;41.87;102117.88;4968550;28;20033;-84
2022/05/28 10:48:43;;;;;;;8.75;1.55;;;;;;;17.82;42.40;102111.25;4940637;28;20034;-84
2022/05/28 10:51:37;;;;;;;4.63;1.35;;;;;;;18.34;40.92;102110.28;4941519;28;20476;-84
2022/05/28 10:54:33;;;;;;;6.53;1.27;;;;;;;18.65;39.65;102113.81;4957841;28;20035;-84
2022/05/28 10:57:29;;;;;;;7.95;1.48;;;;;;;18.52;39.72;102115.84;4967274;28;20125;-83
2022/05/28 11:00:14;;;;;;;5.35;1.20;;;;;;;18.35;40.61;102114.63;4953493;28;20031;-84
2022/05/28 11:03:05;;;;;;;6.35;1.30;;;;;;;18.19;39.74;102116.09;4964996;28;20026;-84
2022/05/28 11:05:51;;;;;;;6.47;1.40;;;;;;;18.15;39.80;102113.69;4969531;28;20059;-84
2022/05/28 11:08:40;;;;;;;6.18;1.45;;;;;;;18.51;41.44;102116.81;4968389;28;20027;-83
2022/05/28 11:11:39;;;;;;;17.90;2.15;;;;;;;18.59;40.79;102117.00;4944286;28;20485;-81
2022/05/28 11:14:22;;;;;;;8.82;1.42;;;;;;;18.24;40.21;102121.88;4937196;28;20074;-82
2022/05/28 11:17:20;;;;;;;8.15;1.50;;;;;;;17.96;40.66;102110.91;4936327;28;20452;-82
2022/05/28 11:20:04;;;;;;;3.85;1.10;;;;;;;18.10;39.15;102099.94;4935509;28;20054;-81
2022/05/28 11:22:35;;;;;;;3.70;1.23;;;;;;;18.19;38.50;102105.44;4935516;28;20631;-81
2022/05/28 11:25:13;;;;;;;3.15;0.93;;;;;;;18.26;37.21;102104.78;4952742;28;20098;-81
2022/05/28 11:27:54;;;;;;;4.97;1.20;;;;;;;18.48;37.25;102091.28;4920689;28;20516;-80
2022/05/28 11:30:27;;;;;;;4.25;1.15;;;;;;;18.58;37.53;102099.31;4969875;28;20544;-81
2022/05/28 11:32:58;;;;;;;4.22;1.30;;;;;;;18.87;37.33;102091.44;4972452;28;20023;-82
2022/05/28 11:35:38;;;;;;;5.60;1.10;;;;;;;19.24;36.82;102091.66;4956090;28;20034;-81
2022/05/28 11:38:17;;;;;;;4.60;0.90;;;;;;;19.34;35.76;102089.81;4956291;28;20019;-81
2022/05/28 11:41:03;;;;;;;3.17;1.17;;;;;;;19.67;37.55;102099.25;4968806;28;20492;-81